createdAt,value
2022-12-01T00:00:02.450Z,79.10
2022-12-01T00:10:01.216Z,74.20
2022-12-01T00:20:00.125Z,73.10
2022-12-01T00:30:00.991Z,80.00
2022-12-01T00:40:01.237Z,70.90
2022-12-01T00:50:00.179Z,67.80
2022-12-01T01:00:00.975Z,65.40
2022-12-01T01:10:01.002Z,56.20
2022-12-01T01:20:01.574Z,63.40
2022-12-01T01:30:01.028Z,60.20
2022-12-01T01:40:01.220Z,53.00
2022-12-01T01:50:01.105Z,57.10
2022-12-01T02:00:01.433Z,66.80
2022-12-01T02:10:01.043Z,68.20
2022-12-01T02:20:02.896Z,65.70
2022-12-01T02:30:00.163Z,64.00
2022-12-01T02:40:01.474Z,48.20
2022-12-01T02:50:00.163Z,63.20
2022-12-01T03:00:01.108Z,62.10
2022-12-01T03:10:00.859Z,67.60
2022-12-01T03:20:01.038Z,55.80
2022-12-01T03:30:01.572Z,65.80
2022-12-01T03:40:01.688Z,73.20
2022-12-01T03:50:02.197Z,56.80
2022-12-01T04:00:00.981Z,69.10
2022-12-01T04:10:01.030Z,72.80
2022-12-01T04:20:00.971Z,67.20
2022-12-01T04:30:01.226Z,58.60
2022-12-01T04:40:02.122Z,71.40
2022-12-01T04:50:01.066Z,77.70
2022-12-01T05:00:01.241Z,70.10
2022-12-01T05:10:01.491Z,67.70
2022-12-01T05:20:01.309Z,82.10
2022-12-01T05:30:01.353Z,70.60
2022-12-01T05:40:01.232Z,71.60
2022-12-01T05:50:05.370Z,65.20
2022-12-01T06:00:00.876Z,71.60
2022-12-01T06:10:01.018Z,75.30
2022-12-01T06:20:01.008Z,65.40
2022-12-01T06:30:01.856Z,76.00
2022-12-01T06:40:00.965Z,53.10
2022-12-01T06:50:01.079Z,73.90
2022-12-01T07:00:01.675Z,81.70
2022-12-01T07:10:00.153Z,79.70
2022-12-01T07:20:00.132Z,92.60
2022-12-01T07:30:01.228Z,87.00
2022-12-01T07:40:02.409Z,99.50
2022-12-01T07:50:00.175Z,90.10
2022-12-01T08:00:01.664Z,129.40
2022-12-01T08:10:01.280Z,101.80
2022-12-01T08:20:01.020Z,121.00
2022-12-01T08:30:01.687Z,95.40
2022-12-01T08:40:01.650Z,109.10
2022-12-01T08:50:01.358Z,102.30
2022-12-01T09:00:01.759Z,105.60
2022-12-01T09:10:01.507Z,99.70
2022-12-01T09:20:02.827Z,80.50
2022-12-01T09:30:01.095Z,96.10
2022-12-01T09:40:00.148Z,92.60
2022-12-01T09:50:00.204Z,99.50
2022-12-01T10:00:01.160Z,123.20
2022-12-01T10:10:03.403Z,107.80
2022-12-01T10:20:01.550Z,89.30
2022-12-01T10:30:01.512Z,110.80
2022-12-01T10:40:01.214Z,103.90
2022-12-01T10:50:01.301Z,90.30
2022-12-01T11:00:01.255Z,96.00
2022-12-01T11:10:01.042Z,87.70
2022-12-01T11:20:01.301Z,84.60
2022-12-01T11:30:01.092Z,75.10
2022-12-01T11:40:00.998Z,78.30
2022-12-01T11:50:00.158Z,77.70
2022-12-01T12:00:01.053Z,72.40
2022-12-01T12:10:01.005Z,79.50
2022-12-01T12:20:09.579Z,65.30
2022-12-01T12:30:01.263Z,63.80
2022-12-01T12:40:01.018Z,64.00
2022-12-01T12:50:01.350Z,66.90
2022-12-01T13:00:03.851Z,62.50
2022-12-01T13:10:00.905Z,69.30
2022-12-01T13:20:01.345Z,61.10
2022-12-01T13:30:01.687Z,59.60
2022-12-01T13:40:02.329Z,58.00
2022-12-01T13:50:01.384Z,59.60
2022-12-01T14:00:01.231Z,55.20
2022-12-01T14:10:01.555Z,54.40
2022-12-01T14:20:03.336Z,55.00
2022-12-01T14:30:01.326Z,61.10
2022-12-01T14:40:01.084Z,53.60
2022-12-01T14:50:00.965Z,57.10
2022-12-01T15:00:01.318Z,44.10
2022-12-01T15:10:01.479Z,45.80
2022-12-01T15:20:01.600Z,51.60
2022-12-01T15:30:01.306Z,57.50
2022-12-01T15:50:00.996Z,57.90
2022-12-01T16:00:02.068Z,52.70
2022-12-01T16:10:01.445Z,53.80
2022-12-01T16:20:00.136Z,48.60
2022-12-01T16:30:01.123Z,54.20
2022-12-01T16:40:01.046Z,48.60
2022-12-01T16:50:00.234Z,57.10
2022-12-01T17:00:02.266Z,57.30
2022-12-01T17:10:00.168Z,51.70
2022-12-01T17:20:01.258Z,51.40
2022-12-01T17:30:00.155Z,60.00
2022-12-01T17:40:02.179Z,56.60
2022-12-01T17:50:01.098Z,58.40
2022-12-01T18:00:01.043Z,56.10
2022-12-01T18:10:00.188Z,58.80
2022-12-01T18:20:01.371Z,63.30
2022-12-01T18:30:00.317Z,51.10
2022-12-01T18:40:01.189Z,61.90
2022-12-01T18:50:01.372Z,63.90
2022-12-01T19:00:01.686Z,55.40
2022-12-01T19:10:02.706Z,57.50
2022-12-01T19:20:01.288Z,48.90
2022-12-01T19:30:02.152Z,53.00
2022-12-01T19:40:01.505Z,55.30
2022-12-01T19:50:01.742Z,52.10
2022-12-01T20:00:01.722Z,55.30
2022-12-01T20:10:00.185Z,52.40
2022-12-01T20:20:01.093Z,54.30
2022-12-01T20:30:02.163Z,59.00
2022-12-01T20:40:01.528Z,48.70
2022-12-01T20:50:01.635Z,54.30
2022-12-01T21:00:01.075Z,57.90
2022-12-01T21:10:01.975Z,55.80
2022-12-01T21:20:01.270Z,51.40
2022-12-01T21:30:01.025Z,59.20
2022-12-01T21:40:00.146Z,51.10
2022-12-01T21:50:01.053Z,55.90
2022-12-01T22:00:00.144Z,53.50
2022-12-01T22:10:04.870Z,54.80
2022-12-01T22:20:01.550Z,49.90
2022-12-01T22:30:01.521Z,49.20
2022-12-01T22:40:01.983Z,54.10
2022-12-01T22:50:01.101Z,46.70
2022-12-01T23:00:04.227Z,52.50
2022-12-01T23:10:01.052Z,50.10
2022-12-01T23:20:01.196Z,46.20
2022-12-01T23:40:02.364Z,53.30
2022-12-01T23:50:01.319Z,48.40
